Time;durP1;ratioP1;P1;durP2;ratioP2;P2;SDS_P1;SDS_P2;PMS_P1;PMS_P2;Temp;Humidity;BMP_temperature;BMP_pressure;BME280_temperature;BME280_humidity;BME280_pressure;Samples;Min_cycle;Max_cycle;Signal;HPM_P1;HPM_P2
2023/07/11 00:00:57;;;;;;;10.38;3.35;;;;;;;;;;5069283;28;20034;-73
2023/07/11 00:03:23;;;;;;;10.75;3.08;;;;;;;;;;5074092;28;20542;-74
2023/07/11 00:05:59;;;;;;;8.50;3.25;;;;;;;;;;5071049;28;20100;-73
2023/07/11 00:08:25;;;;;;;10.35;3.75;;;;;;;;;;5071303;28;20028;-73
2023/07/11 00:10:51;;;;;;;11.57;3.53;;;;;;;;;;5070089;28;20277;-74
2023/07/11 00:13:17;;;;;;;15.27;4.15;;;;;;;;;;5070445;28;20457;-74
2023/07/11 00:15:43;;;;;;;11.60;3.63;;;;;;;;;;5071414;28;20025;-74
2023/07/11 00:18:09;;;;;;;9.20;3.50;;;;;;;;;;5071130;28;20020;-74
2023/07/11 00:20:35;;;;;;;11.10;3.83;;;;;;;;;;5070500;28;20379;-74
2023/07/11 00:23:01;;;;;;;9.13;3.30;;;;;;;;;;5070242;28;20108;-73
2023/07/11 00:25:27;;;;;;;9.40;2.90;;;;;;;;;;5070285;28;20120;-73
2023/07/11 00:27:53;;;;;;;10.68;3.30;;;;;;;;;;5071033;28;20024;-73
2023/07/11 00:30:19;;;;;;;11.80;3.88;;;;;;;;;;5071334;28;20521;-74
2023/07/11 00:32:44;;;;;;;8.60;3.22;;;;;;;;;;5069991;28;20029;-72
2023/07/11 00:35:10;;;;;;;8.50;2.72;;;;;;;;;;5070713;28;20025;-74
2023/07/11 00:37:36;;;;;;;9.80;3.38;;;;;;;;;;5070663;28;20031;-73
2023/07/11 00:40:03;;;;;;;10.45;3.40;;;;;;;;;;5070218;28;20440;-73
2023/07/11 00:42:29;;;;;;;9.25;3.13;;;;;;;;;;5069878;28;20073;-73
2023/07/11 00:44:55;;;;;;;12.15;3.05;;;;;;;;;;5070723;28;20025;-73
2023/07/11 00:47:22;;;;;;;11.90;3.30;;;;;;;;;;5071024;28;20028;-73
2023/07/11 00:49:48;;;;;;;9.48;3.10;;;;;;;;;;5071073;28;20054;-73
2023/07/11 00:52:15;;;;;;;10.80;3.25;;;;;;;;;;5069180;28;20035;-73
2023/07/11 00:54:43;;;;;;;14.57;3.67;;;;;;;;;;5070556;28;20020;-74
2023/07/11 00:57:09;;;;;;;10.40;3.40;;;;;;;;;;5070498;28;20089;-73
2023/07/11 00:59:36;;;;;;;12.82;3.70;;;;;;;;;;5070536;28;20021;-73
2023/07/11 01:02:19;;;;;;;9.85;3.03;;;;;;;;;;5069710;28;20040;-73
2023/07/11 01:04:46;;;;;;;9.57;2.97;;;;;;;;;;5069943;28;20029;-74
2023/07/11 01:07:14;;;;;;;10.50;3.15;;;;;;;;;;5070381;28;20029;-74
2023/07/11 01:09:40;;;;;;;10.05;3.08;;;;;;;;;;5070575;28;20031;-74
2023/07/11 01:12:08;;;;;;;9.43;3.25;;;;;;;;;;5069716;28;20032;-74
2023/07/11 01:14:35;;;;;;;10.43;2.75;;;;;;;;;;5069202;28;20017;-74
2023/07/11 01:17:01;;;;;;;8.15;3.00;;;;;;;;;;5069251;28;20021;-73
2023/07/11 01:19:27;;;;;;;9.13;2.97;;;;;;;;;;5069676;28;20104;-73
2023/07/11 01:21:53;;;;;;;11.40;2.85;;;;;;;;;;5070062;28;20036;-73
2023/07/11 01:24:18;;;;;;;8.05;2.97;;;;;;;;;;5069180;28;20538;-73
2023/07/11 01:26:44;;;;;;;9.80;3.20;;;;;;;;;;5070105;28;20306;-73
2023/07/11 01:29:11;;;;;;;13.80;3.60;;;;;;;;;;5070066;28;20033;-74
2023/07/11 01:31:37;;;;;;;9.60;3.70;;;;;;;;;;5069517;28;20032;-73
2023/07/11 01:34:04;;;;;;;13.13;3.50;;;;;;;;;;5070893;28;20308;-73
2023/07/11 01:36:30;;;;;;;13.32;3.78;;;;;;;;;;5075303;28;20020;-74
2023/07/11 01:38:59;;;;;;;8.77;3.50;;;;;;;;;;5075309;28;20082;-74
2023/07/11 01:41:25;;;;;;;17.65;4.22;;;;;;;;;;5075012;28;20024;-75
2023/07/11 01:43:52;;;;;;;14.35;4.15;;;;;;;;;;5074853;28;20028;-74
2023/07/11 01:46:18;;;;;;;12.38;3.97;;;;;;;;;;5075321;28;20024;-75
2023/07/11 01:48:44;;;;;;;12.00;3.63;;;;;;;;;;5075702;28;20033;-73
2023/07/11 01:51:10;;;;;;;11.98;3.97;;;;;;;;;;5073455;28;20036;-74
2023/07/11 01:53:36;;;;;;;10.65;3.67;;;;;;;;;;5074477;28;20024;-74
2023/07/11 01:56:03;;;;;;;10.52;3.50;;;;;;;;;;5074817;28;20031;-74
2023/07/11 01:58:30;;;;;;;10.52;3.40;;;;;;;;;;5074609;28;20056;-75
2023/07/11 02:00:57;;;;;;;5.57;2.63;;;;;;;;;;5074316;28;20127;-73
2023/07/11 02:03:23;;;;;;;6.60;2.83;;;;;;;;;;5074225;28;20021;-76
2023/07/11 02:05:49;;;;;;;7.68;2.83;;;;;;;;;;5074502;28;20021;-76
2023/07/11 02:08:15;;;;;;;10.50;3.05;;;;;;;;;;5074646;28;20023;-76
2023/07/11 02:10:41;;;;;;;10.95;3.08;;;;;;;;;;5074315;28;20077;-74
2023/07/11 02:13:08;;;;;;;10.50;3.67;;;;;;;;;;5073748;28;20430;-75
2023/07/11 02:15:34;;;;;;;8.70;3.35;;;;;;;;;;5074263;28;20343;-75
2023/07/11 02:18:00;;;;;;;18.48;4.85;;;;;;;;;;5074331;28;20021;-75
2023/07/11 02:20:26;;;;;;;13.88;4.18;;;;;;;;;;5074121;28;20025;-75
2023/07/11 02:22:52;;;;;;;13.73;4.28;;;;;;;;;;5073413;28;20036;-76
2023/07/11 02:25:18;;;;;;;18.48;4.38;;;;;;;;;;5073731;28;20474;-75
2023/07/11 02:27:43;;;;;;;12.88;4.03;;;;;;;;;;5074127;28;20025;-75
2023/07/11 02:30:10;;;;;;;15.48;4.82;;;;;;;;;;5075781;28;20039;-73
2023/07/11 02:32:36;;;;;;;14.70;4.30;;;;;;;;;;5073916;28;20105;-71
2023/07/11 02:35:02;;;;;;;14.75;4.32;;;;;;;;;;5073774;28;20391;-71
2023/07/11 02:37:28;;;;;;;15.32;4.18;;;;;;;;;;5074028;28;20020;-72
2023/07/11 02:39:54;;;;;;;17.50;4.60;;;;;;;;;;5073715;28;20032;-71
2023/07/11 02:42:20;;;;;;;14.98;4.97;;;;;;;;;;5073256;28;20056;-74
2023/07/11 02:44:46;;;;;;;15.00;4.80;;;;;;;;;;5073092;28;20028;-74
2023/07/11 02:47:12;;;;;;;13.55;4.32;;;;;;;;;;5073782;28;20017;-73
2023/07/11 02:49:38;;;;;;;12.85;4.30;;;;;;;;;;5073492;28;20025;-72
2023/07/11 02:52:07;;;;;;;14.40;4.07;;;;;;;;;;5072850;28;20024;-72
2023/07/11 02:54:36;;;;;;;18.17;4.65;;;;;;;;;;5073258;28;20144;-72
2023/07/11 02:57:02;;;;;;;12.60;3.97;;;;;;;;;;5073295;28;20021;-73
2023/07/11 02:59:28;;;;;;;14.40;3.90;;;;;;;;;;5073172;28;20500;-73
2023/07/11 03:01:56;;;;;;;15.80;5.30;;;;;;;;;;5072956;28;20064;-74
2023/07/11 03:04:22;;;;;;;16.65;4.18;;;;;;;;;;5073593;28;20107;-73
2023/07/11 03:06:48;;;;;;;13.07;4.88;;;;;;;;;;5073487;28;20059;-73
2023/07/11 03:09:14;;;;;;;20.60;5.13;;;;;;;;;;5073506;28;20028;-74
2023/07/11 03:11:41;;;;;;;18.77;5.05;;;;;;;;;;5073212;28;20150;-74
2023/07/11 03:14:07;;;;;;;16.35;4.88;;;;;;;;;;5073578;28;20028;-72
2023/07/11 03:16:33;;;;;;;16.05;4.97;;;;;;;;;;5074027;28;20059;-73
2023/07/11 03:19:01;;;;;;;11.88;4.00;;;;;;;;;;5074401;28;20027;-72
2023/07/11 03:21:27;;;;;;;17.27;4.25;;;;;;;;;;5074853;28;20033;-73
2023/07/11 03:23:53;;;;;;;17.70;4.90;;;;;;;;;;5072052;28;20029;-72
2023/07/11 03:26:19;;;;;;;14.68;4.55;;;;;;;;;;5073720;28;20028;-74
2023/07/11 03:28:45;;;;;;;15.95;4.72;;;;;;;;;;5072661;28;20020;-74
2023/07/11 03:31:11;;;;;;;18.92;4.75;;;;;;;;;;5072957;28;20425;-73
2023/07/11 03:33:37;;;;;;;14.82;4.15;;;;;;;;;;5072067;28;20062;-73
2023/07/11 03:36:03;;;;;;;15.27;4.45;;;;;;;;;;5073039;28;20024;-73
2023/07/11 03:38:29;;;;;;;13.85;4.65;;;;;;;;;;5072861;28;20028;-73
2023/07/11 03:40:55;;;;;;;15.45;4.68;;;;;;;;;;5073195;28;20056;-74
2023/07/11 03:43:21;;;;;;;23.08;5.22;;;;;;;;;;5071935;28;20020;-73
2023/07/11 03:45:47;;;;;;;15.38;4.47;;;;;;;;;;5072522;28;20066;-72
2023/07/11 03:48:14;;;;;;;12.10;3.92;;;;;;;;;;5072075;28;20467;-72
2023/07/11 03:50:41;;;;;;;12.35;4.20;;;;;;;;;;5072644;28;20024;-70
2023/07/11 03:53:07;;;;;;;15.35;4.22;;;;;;;;;;5072561;28;20108;-72
2023/07/11 03:55:33;;;;;;;21.63;5.00;;;;;;;;;;5072131;28;20177;-72
2023/07/11 03:57:59;;;;;;;18.30;4.40;;;;;;;;;;5072983;28;20491;-71
2023/07/11 04:00:24;;;;;;;13.73;4.50;;;;;;;;;;5072513;28;20035;-72
2023/07/11 04:02:51;;;;;;;20.35;5.18;;;;;;;;;;5072001;28;20028;-72
2023/07/11 04:05:17;;;;;;;18.25;4.70;;;;;;;;;;5072294;28;20107;-72
2023/07/11 04:07:43;;;;;;;15.63;4.55;;;;;;;;;;5072229;28;20526;-73
2023/07/11 04:10:12;;;;;;;17.65;4.20;;;;;;;;;;5071918;28;20033;-71
2023/07/11 04:12:38;;;;;;;16.50;4.28;;;;;;;;;;5071738;28;20064;-71
2023/07/11 04:15:04;;;;;;;17.23;4.20;;;;;;;;;;5072166;28;20390;-72
2023/07/11 04:17:30;;;;;;;16.83;3.97;;;;;;;;;;5072088;28;20020;-72
2023/07/11 04:19:56;;;;;;;12.27;3.95;;;;;;;;;;5072028;28;20466;-72
2023/07/11 04:22:22;;;;;;;18.27;3.85;;;;;;;;;;5071790;28;20029;-72
2023/07/11 04:24:48;;;;;;;17.60;4.72;;;;;;;;;;5072067;28;20100;-71
2023/07/11 04:27:14;;;;;;;16.52;4.55;;;;;;;;;;5071817;28;20371;-72
2023/07/11 04:29:40;;;;;;;15.18;4.20;;;;;;;;;;5071814;28;20031;-72
2023/07/11 04:32:06;;;;;;;16.65;4.53;;;;;;;;;;5071409;28;20104;-73
2023/07/11 04:34:33;;;;;;;15.15;4.18;;;;;;;;;;5072068;28;20021;-72
2023/07/11 04:36:58;;;;;;;15.68;4.72;;;;;;;;;;5075434;28;20049;-73
2023/07/11 04:39:26;;;;;;;17.08;4.28;;;;;;;;;;5071901;28;20103;-72
2023/07/11 04:41:52;;;;;;;19.90;4.10;;;;;;;;;;5071558;28;20481;-71
2023/07/11 04:44:18;;;;;;;21.23;4.57;;;;;;;;;;5071959;28;20036;-72
2023/07/11 04:46:44;;;;;;;16.52;5.82;;;;;;;;;;5072671;28;20029;-73
2023/07/11 04:49:10;;;;;;;18.42;5.22;;;;;;;;;;5074128;28;20029;-72
2023/07/11 04:51:36;;;;;;;13.45;3.92;;;;;;;;;;5071431;28;20442;-72
2023/07/11 04:54:02;;;;;;;15.50;4.43;;;;;;;;;;5071463;28;20074;-72
2023/07/11 04:56:28;;;;;;;16.75;4.57;;;;;;;;;;5073824;28;20021;-72
2023/07/11 04:58:54;;;;;;;15.02;3.72;;;;;;;;;;5072757;28;20029;-71
2023/07/11 05:01:19;;;;;;;16.73;4.22;;;;;;;;;;5074146;28;20021;-72
2023/07/11 05:03:46;;;;;;;15.77;4.93;;;;;;;;;;5069744;28;20467;-72
2023/07/11 05:06:12;;;;;;;12.90;4.03;;;;;;;;;;5075495;28;20054;-73
2023/07/11 05:08:38;;;;;;;15.00;4.85;;;;;;;;;;5073486;28;20028;-71
2023/07/11 05:11:04;;;;;;;14.27;4.72;;;;;;;;;;5071327;28;20600;-71
2023/07/11 05:13:31;;;;;;;18.38;4.70;;;;;;;;;;5070090;28;20371;-70
2023/07/11 05:16:01;;;;;;;15.90;5.35;;;;;;;;;;5073870;28;20024;-70
2023/07/11 05:18:27;;;;;;;15.90;4.80;;;;;;;;;;5073490;28;20074;-75
2023/07/11 05:20:56;;;;;;;14.32;4.80;;;;;;;;;;5071654;28;20025;-74
2023/07/11 05:23:24;;;;;;;18.88;5.03;;;;;;;;;;5071744;28;20066;-72
2023/07/11 05:25:50;;;;;;;13.23;4.50;;;;;;;;;;5071291;28;20071;-73
2023/07/11 05:28:16;;;;;;;14.93;4.80;;;;;;;;;;5071644;28;20054;-75
2023/07/11 05:30:43;;;;;;;13.32;5.10;;;;;;;;;;5072105;28;20032;-74
2023/07/11 05:33:09;;;;;;;19.77;4.50;;;;;;;;;;5071801;28;20497;-76
2023/07/11 05:35:45;;;;;;;15.57;5.03;;;;;;;;;;5071650;28;20056;-73
2023/07/11 05:38:11;;;;;;;13.68;4.78;;;;;;;;;;5071689;28;20133;-73
2023/07/11 05:40:40;;;;;;;14.98;4.05;;;;;;;;;;5071179;28;20316;-72
2023/07/11 05:43:06;;;;;;;19.65;4.28;;;;;;;;;;5071048;28;20431;-73
2023/07/11 05:45:32;;;;;;;14.38;4.20;;;;;;;;;;5070885;28;20482;-72
2023/07/11 05:47:59;;;;;;;13.48;3.80;;;;;;;;;;5070854;28;20059;-71
2023/07/11 05:50:25;;;;;;;12.90;3.58;;;;;;;;;;5075524;28;20073;-71
2023/07/11 05:52:51;;;;;;;15.00;3.45;;;;;;;;;;5075210;28;20071;-73
2023/07/11 05:55:17;;;;;;;14.75;3.33;;;;;;;;;;5070212;28;20077;-72
2023/07/11 05:57:43;;;;;;;9.20;3.50;;;;;;;;;;5070171;28;20482;-71
2023/07/11 06:00:09;;;;;;;12.27;3.22;;;;;;;;;;5076272;28;20028;-75
2023/07/11 06:02:36;;;;;;;11.05;3.50;;;;;;;;;;5068890;28;20036;-72
2023/07/11 06:05:02;;;;;;;11.32;3.30;;;;;;;;;;5072894;28;20029;-73
2023/07/11 06:07:28;;;;;;;12.90;3.22;;;;;;;;;;5070471;28;20056;-74
2023/07/11 06:09:55;;;;;;;10.25;3.75;;;;;;;;;;5071306;28;20460;-73
2023/07/11 06:12:21;;;;;;;9.82;3.33;;;;;;;;;;5068784;28;20021;-73
2023/07/11 06:14:49;;;;;;;12.95;3.25;;;;;;;;;;5075405;28;20021;-73
2023/07/11 06:17:15;;;;;;;9.15;2.90;;;;;;;;;;5071581;28;20167;-76
2023/07/11 06:19:41;;;;;;;9.55;2.83;;;;;;;;;;5072221;28;20039;-71
2023/07/11 06:22:07;;;;;;;12.23;3.13;;;;;;;;;;5073945;28;20031;-71
2023/07/11 06:24:33;;;;;;;12.18;3.33;;;;;;;;;;5075172;28;20060;-73
2023/07/11 06:26:59;;;;;;;11.88;3.40;;;;;;;;;;5074651;28;20052;-73
2023/07/11 06:29:26;;;;;;;15.63;3.33;;;;;;;;;;5074443;28;20028;-71
2023/07/11 06:31:51;;;;;;;12.00;3.28;;;;;;;;;;5073630;28;20055;-74
2023/07/11 06:34:17;;;;;;;7.78;2.47;;;;;;;;;;5071979;28;20060;-75
2023/07/11 06:36:43;;;;;;;17.23;3.42;;;;;;;;;;5072889;28;20093;-73
2023/07/11 06:39:09;;;;;;;14.50;3.08;;;;;;;;;;5073957;28;20036;-74
2023/07/11 06:41:35;;;;;;;11.00;3.08;;;;;;;;;;5073971;28;20035;-74
2023/07/11 06:44:01;;;;;;;9.88;3.25;;;;;;;;;;5072762;28;20119;-73
2023/07/11 06:46:27;;;;;;;13.35;3.53;;;;;;;;;;5074543;28;20060;-75
2023/07/11 06:48:54;;;;;;;10.90;3.42;;;;;;;;;;5074286;28;20106;-77
2023/07/11 06:51:20;;;;;;;11.25;3.10;;;;;;;;;;5074007;28;20477;-74
2023/07/11 06:53:46;;;;;;;10.60;2.95;;;;;;;;;;5071989;28;20031;-74
2023/07/11 06:56:12;;;;;;;17.80;3.20;;;;;;;;;;5072685;28;20443;-73
2023/07/11 06:58:38;;;;;;;15.50;3.08;;;;;;;;;;5073017;28;20031;-75
2023/07/11 07:01:06;;;;;;;12.93;3.25;;;;;;;;;;5072669;28;20050;-74
2023/07/11 07:03:33;;;;;;;13.25;5.35;;;;;;;;;;5072289;28;20521;-73
2023/07/11 07:06:03;;;;;;;11.20;3.40;;;;;;;;;;5071081;28;20553;-74
2023/07/11 07:08:29;;;;;;;14.00;3.80;;;;;;;;;;5073931;28;20081;-75
2023/07/11 07:10:55;;;;;;;11.98;3.33;;;;;;;;;;5073563;28;20024;-74
2023/07/11 07:13:22;;;;;;;14.40;2.90;;;;;;;;;;5072040;28;20024;-74
2023/07/11 07:15:52;;;;;;;12.55;3.20;;;;;;;;;;5072287;28;20024;-73
2023/07/11 07:18:19;;;;;;;11.07;2.90;;;;;;;;;;5072414;28;20081;-73
2023/07/11 07:20:45;;;;;;;14.90;3.20;;;;;;;;;;5071650;28;20035;-74
2023/07/11 07:23:11;;;;;;;12.70;3.03;;;;;;;;;;5071678;28;20111;-73
2023/07/11 07:25:37;;;;;;;13.60;3.55;;;;;;;;;;5071962;28;20043;-73
2023/07/11 07:28:04;;;;;;;16.90;3.15;;;;;;;;;;5072268;28;20486;-75
2023/07/11 07:30:30;;;;;;;10.85;2.92;;;;;;;;;;5073587;28;20035;-80
2023/07/11 07:32:56;;;;;;;13.45;3.00;;;;;;;;;;5071359;28;20024;-75
2023/07/11 07:35:22;;;;;;;13.90;3.20;;;;;;;;;;5072103;28;20024;-75
2023/07/11 07:37:48;;;;;;;16.35;4.95;;;;;;;;;;5067000;28;20032;-75
2023/07/11 07:40:14;;;;;;;17.23;3.22;;;;;;;;;;5065385;28;20031;-74
2023/07/11 07:42:40;;;;;;;17.48;3.45;;;;;;;;;;5068303;28;20013;-74
2023/07/11 07:45:06;;;;;;;11.73;2.97;;;;;;;;;;5068807;28;20032;-74
2023/07/11 07:47:35;;;;;;;15.85;3.42;;;;;;;;;;5065773;28;20065;-75
2023/07/11 07:50:01;;;;;;;10.70;3.13;;;;;;;;;;5068548;28;20116;-73
2023/07/11 07:52:27;;;;;;;12.40;2.70;;;;;;;;;;5063261;28;20021;-73
2023/07/11 07:54:53;;;;;;;9.88;2.75;;;;;;;;;;5070636;28;20429;-73
2023/07/11 07:57:18;;;;;;;11.10;3.20;;;;;;;;;;5066067;28;20048;-73
2023/07/11 07:59:44;;;;;;;12.65;3.03;;;;;;;;;;5065747;28;20023;-73
2023/07/11 08:02:11;;;;;;;9.80;3.15;;;;;;;;;;5066631;28;20028;-75
2023/07/11 08:04:37;;;;;;;9.15;2.70;;;;;;;;;;5070765;28;20063;-75
2023/07/11 08:07:03;;;;;;;13.45;3.20;;;;;;;;;;5070621;28;20064;-74
2023/07/11 08:09:29;;;;;;;13.55;3.20;;;;;;;;;;5070598;28;20020;-75
2023/07/11 08:11:55;;;;;;;11.25;4.28;;;;;;;;;;5070134;28;20075;-74
2023/07/11 08:14:21;;;;;;;10.32;2.50;;;;;;;;;;5063342;28;20100;-74
2023/07/11 08:16:47;;;;;;;11.68;2.90;;;;;;;;;;5060924;28;20048;-75
2023/07/11 08:19:13;;;;;;;12.50;2.97;;;;;;;;;;5066758;28;20028;-75
2023/07/11 08:21:39;;;;;;;9.02;2.45;;;;;;;;;;5068415;28;20036;-74
2023/07/11 08:24:06;;;;;;;10.75;2.88;;;;;;;;;;5063838;28;20021;-75
2023/07/11 08:26:32;;;;;;;7.97;2.97;;;;;;;;;;5067827;28;20374;-76
2023/07/11 08:28:59;;;;;;;13.75;2.97;;;;;;;;;;5070414;28;20425;-75
2023/07/11 08:31:25;;;;;;;13.65;2.55;;;;;;;;;;5068207;28;20024;-74
2023/07/11 08:33:51;;;;;;;10.95;2.58;;;;;;;;;;5065553;28;20031;-74
2023/07/11 08:36:18;;;;;;;10.40;2.88;;;;;;;;;;5070051;28;20032;-73
2023/07/11 08:38:45;;;;;;;11.38;3.00;;;;;;;;;;5070876;28;20030;-76
2023/07/11 08:41:34;;;;;;;12.93;2.55;;;;;;;;;;5063381;28;20426;-73
2023/07/11 08:44:05;;;;;;;9.20;2.90;;;;;;;;;;5062554;28;20029;-75
2023/07/11 08:46:36;;;;;;;12.65;2.70;;;;;;;;;;5071935;28;20024;-74
2023/07/11 08:49:03;;;;;;;10.93;2.38;;;;;;;;;;5075562;28;20039;-75
2023/07/11 08:51:38;;;;;;;5.85;2.28;;;;;;;;;;5064543;28;20095;-75
2023/07/11 08:54:03;;;;;;;;;;;;;;;;;;5068338;28;20020;-75
2023/07/11 08:56:36;;;;;;;14.27;2.40;;;;;;;;;;5068246;28;19904;-75
2023/07/11 08:59:04;;;;;;;11.77;2.53;;;;;;;;;;5070222;28;20062;-76
2023/07/11 09:01:34;;;;;;;9.75;2.60;;;;;;;;;;5067173;28;20021;-77
2023/07/11 09:04:01;;;;;;;8.85;3.28;;;;;;;;;;5069828;28;20043;-76
2023/07/11 09:06:33;;;;;;;7.00;2.88;;;;;;;;;;5070202;28;20342;-74
2023/07/11 09:08:59;;;;;;;6.82;2.72;;;;;;;;;;5069871;28;20027;-74
2023/07/11 09:11:34;;;;;;;22.40;3.08;;;;;;;;;;5069878;28;20062;-75
2023/07/11 09:14:00;;;;;;;;;;;;;;;;;;5074542;28;20028;-75
2023/07/11 09:17:01;;;;;;;10.18;2.38;;;;;;;;;;5072314;28;19911;-75
2023/07/11 09:19:46;;;;;;;12.57;2.80;;;;;;;;;;5049239;28;20090;-74
2023/07/11 09:22:12;;;;;;;;;;;;;;;;;;5070125;28;20131;-75
2023/07/11 09:24:51;;;;;;;7.32;2.70;;;;;;;;;;5071768;28;19905;-73
2023/07/11 09:27:26;;;;;;;5.80;2.42;;;;;;;;;;5071874;28;20036;-74
2023/07/11 09:29:52;;;;;;;11.63;2.63;;;;;;;;;;5071435;28;20474;-75
2023/07/11 09:32:18;;;;;;;13.55;2.90;;;;;;;;;;5072679;28;20029;-75
2023/07/11 09:34:48;;;;;;;10.50;2.70;;;;;;;;;;5073256;28;20028;-75
2023/07/11 09:37:21;;;;;;;7.70;2.50;;;;;;;;;;5075268;28;20527;-74
2023/07/11 09:39:50;;;;;;;9.63;2.40;;;;;;;;;;5073273;28;20468;-74
2023/07/11 09:42:26;;;;;;;11.52;2.40;;;;;;;;;;5073388;28;20548;-74
2023/07/11 09:44:59;;;;;;;8.07;2.72;;;;;;;;;;5073256;28;20039;-73
2023/07/11 09:47:30;;;;;;;9.07;2.75;;;;;;;;;;5072849;28;20450;-75
2023/07/11 09:49:56;;;;;;;7.93;2.47;;;;;;;;;;5071815;28;20548;-73
2023/07/11 09:52:26;;;;;;;17.55;2.47;;;;;;;;;;5071986;28;20103;-75
2023/07/11 09:54:52;;;;;;;7.13;2.45;;;;;;;;;;5075969;28;20389;-74
2023/07/11 09:57:19;;;;;;;10.02;2.47;;;;;;;;;;5077603;28;20386;-74
2023/07/11 09:59:52;;;;;;;9.35;2.60;;;;;;;;;;5076787;28;20024;-74
2023/07/11 10:02:18;;;;;;;9.70;2.28;;;;;;;;;;5077203;28;20435;-75
2023/07/11 10:04:46;;;;;;;9.77;3.38;;;;;;;;;;5075144;28;20028;-74
2023/07/11 10:07:15;;;;;;;7.88;2.67;;;;;;;;;;5073987;28;20458;-76
2023/07/11 10:09:46;;;;;;;5.90;2.63;;;;;;;;;;5075987;28;20389;-74
2023/07/11 10:12:23;;;;;;;5.53;2.08;;;;;;;;;;5075246;28;20036;-74
2023/07/11 10:14:53;;;;;;;8.27;2.38;;;;;;;;;;5076139;28;20094;-73
2023/07/11 10:17:21;;;;;;;10.82;2.13;;;;;;;;;;5074362;28;20033;-75
2023/07/11 10:19:51;;;;;;;8.98;2.53;;;;;;;;;;5076432;28;20034;-75
2023/07/11 10:22:19;;;;;;;8.60;2.20;;;;;;;;;;5075976;28;20289;-74
2023/07/11 10:24:46;;;;;;;13.40;2.47;;;;;;;;;;5076938;28;20416;-75
2023/07/11 10:27:22;;;;;;;5.57;2.42;;;;;;;;;;5076259;28;20111;-74
2023/07/11 10:29:50;;;;;;;6.78;2.33;;;;;;;;;;5076048;28;20097;-76
2023/07/11 10:32:26;;;;;;;5.35;1.98;;;;;;;;;;5075615;28;20025;-74
2023/07/11 10:34:55;;;;;;;6.45;2.33;;;;;;;;;;5076080;28;20086;-75
2023/07/11 10:37:42;;;;;;;8.73;2.25;;;;;;;;;;5075863;28;20024;-75
2023/07/11 10:40:19;;;;;;;8.65;2.28;;;;;;;;;;5076019;28;20429;-74
2023/07/11 10:42:54;;;;;;;8.25;2.13;;;;;;;;;;5076859;28;20059;-76
2023/07/11 10:45:30;;;;;;;8.45;1.95;;;;;;;;;;5075833;28;20101;-75
2023/07/11 10:48:07;;;;;;;6.88;2.47;;;;;;;;;;5072411;28;20017;-76
2023/07/11 10:50:39;;;;;;;7.13;2.25;;;;;;;;;;5057648;28;20371;-74
2023/07/11 10:53:13;;;;;;;8.18;2.50;;;;;;;;;;5059050;28;20437;-74
2023/07/11 10:55:44;;;;;;;11.02;2.42;;;;;;;;;;5061469;28;20075;-74
2023/07/11 10:58:11;;;;;;;10.48;2.40;;;;;;;;;;5061021;28;20162;-75
2023/07/11 11:00:51;;;;;;;7.10;2.35;;;;;;;;;;5064741;28;20024;-74
2023/07/11 11:03:38;;;;;;;5.60;2.38;;;;;;;;;;5067038;28;20025;-74
2023/07/11 11:06:22;;;;;;;7.13;2.60;;;;;;;;;;5056490;28;20021;-76
2023/07/11 11:09:07;;;;;;;6.13;2.45;;;;;;;;;;5059731;28;20056;-75
2023/07/11 11:11:52;;;;;;;5.20;2.22;;;;;;;;;;5060521;28;20090;-74
2023/07/11 11:14:22;;;;;;;7.93;2.58;;;;;;;;;;5062055;28;20017;-75
2023/07/11 11:17:14;;;;;;;4.90;2.40;;;;;;;;;;5062551;28;20048;-75
2023/07/11 11:20:16;;;;;;;10.30;2.40;;;;;;;;;;5058884;28;20028;-75
2023/07/11 11:22:57;;;;;;;7.30;2.58;;;;;;;;;;5052555;28;20028;-75
2023/07/11 11:25:26;;;;;;;12.57;2.83;;;;;;;;;;5059749;28;20116;-76
2023/07/11 11:27:52;;;;;;;8.25;2.90;;;;;;;;;;5060310;28;20021;-75
2023/07/11 11:30:24;;;;;;;8.77;2.95;;;;;;;;;;5064416;28;20051;-76
2023/07/11 11:33:09;;;;;;;7.30;2.60;;;;;;;;;;5061385;28;20359;-75
2023/07/11 11:35:52;;;;;;;7.55;2.60;;;;;;;;;;5059089;28;21030;-76
2023/07/11 11:38:30;;;;;;;9.20;2.70;;;;;;;;;;5062786;28;20107;-74
2023/07/11 11:40:58;;;;;;;8.45;2.95;;;;;;;;;;5059516;28;20024;-77
2023/07/11 11:43:26;;;;;;;15.00;3.20;;;;;;;;;;5058267;28;20037;-75
2023/07/11 11:45:52;;;;;;;11.88;3.25;;;;;;;;;;5057670;28;20155;-77
2023/07/11 11:48:19;;;;;;;7.97;2.80;;;;;;;;;;5060477;28;20048;-76
2023/07/11 11:50:46;;;;;;;6.03;2.83;;;;;;;;;;5070106;28;20032;-75
2023/07/11 11:53:17;;;;;;;16.98;2.70;;;;;;;;;;5054017;28;20486;-76
2023/07/11 11:55:50;;;;;;;7.43;2.90;;;;;;;;;;5053817;28;20029;-74
2023/07/11 11:58:17;;;;;;;9.45;2.80;;;;;;;;;;5053785;28;20021;-75
2023/07/11 12:00:47;;;;;;;7.18;3.42;;;;;;;;;;5063386;28;20028;-75
2023/07/11 12:03:32;;;;;;;7.82;3.10;;;;;;;;;;5073136;28;20047;-74
2023/07/11 12:05:59;;;;;;;9.65;3.10;;;;;;;;;;5072369;28;20033;-75
2023/07/11 12:08:25;;;;;;;5.85;2.60;;;;;;;;;;5071101;28;20107;-75
2023/07/11 12:11:18;;;;;;;4.53;2.60;;;;;;;;;;5073345;28;20087;-77
2023/07/11 12:13:44;;;;;;;6.97;2.88;;;;;;;;;;5072237;28;20049;-75
2023/07/11 12:16:22;;;;;;;7.65;2.80;;;;;;;;;;5071967;28;20032;-75
2023/07/11 12:18:52;;;;;;;10.65;2.80;;;;;;;;;;5071070;28;20032;-73
2023/07/11 12:21:24;;;;;;;12.05;2.90;;;;;;;;;;5072076;28;20533;-74
2023/07/11 12:23:51;;;;;;;8.23;3.08;;;;;;;;;;5071974;28;20050;-73
2023/07/11 12:26:20;;;;;;;11.27;3.30;;;;;;;;;;5072196;28;20027;-74
2023/07/11 12:28:47;;;;;;;7.25;3.55;;;;;;;;;;5071481;28;20021;-76
2023/07/11 12:31:16;;;;;;;10.35;3.72;;;;;;;;;;5072784;28;20050;-74
2023/07/11 12:33:42;;;;;;;8.25;3.10;;;;;;;;;;5072255;28;20486;-76
2023/07/11 12:36:14;;;;;;;12.80;4.35;;;;;;;;;;5072421;28;20073;-72
2023/07/11 12:38:56;;;;;;;16.27;6.50;;;;;;;;;;5074036;28;20486;-75
2023/07/11 12:41:33;;;;;;;9.02;4.57;;;;;;;;;;5073920;28;20028;-74
2023/07/11 12:44:01;;;;;;;9.52;3.97;;;;;;;;;;5072054;28;20024;-73
2023/07/11 12:46:34;;;;;;;10.07;5.15;;;;;;;;;;5073106;28;20028;-78
2023/07/11 12:49:02;;;;;;;10.25;4.38;;;;;;;;;;5074664;28;20028;-74
2023/07/11 12:51:37;;;;;;;10.38;3.28;;;;;;;;;;5054081;28;20040;-74
2023/07/11 12:54:14;;;;;;;9.52;3.47;;;;;;;;;;5072130;28;20096;-72
2023/07/11 12:56:47;;;;;;;7.03;3.25;;;;;;;;;;5071751;28;20016;-73
2023/07/11 12:59:21;;;;;;;10.52;3.45;;;;;;;;;;5071481;28;20056;-73
2023/07/11 13:01:49;;;;;;;15.27;3.40;;;;;;;;;;5070771;28;20108;-75
2023/07/11 13:04:21;;;;;;;7.45;3.60;;;;;;;;;;5077260;28;20371;-73
2023/07/11 13:06:54;;;;;;;11.13;3.67;;;;;;;;;;5071797;28;20032;-74
2023/07/11 13:09:20;;;;;;;8.80;3.90;;;;;;;;;;5072412;28;20119;-75
2023/07/11 13:11:46;;;;;;;8.00;4.38;;;;;;;;;;5070924;28;20086;-73
2023/07/11 13:14:12;;;;;;;9.52;3.50;;;;;;;;;;5074150;28;20510;-73
2023/07/11 13:16:39;;;;;;;5.45;3.50;;;;;;;;;;5071232;28;20023;-73
2023/07/11 13:19:05;;;;;;;6.45;3.78;;;;;;;;;;5071357;28;20031;-75
2023/07/11 13:21:32;;;;;;;8.45;3.22;;;;;;;;;;5074543;28;20494;-73
2023/07/11 13:24:00;;;;;;;8.10;3.38;;;;;;;;;;5070350;28;20032;-81
2023/07/11 13:26:29;;;;;;;6.72;3.40;;;;;;;;;;5070999;28;20030;-75
2023/07/11 13:29:15;;;;;;;9.88;3.30;;;;;;;;;;5075417;28;20024;-77
2023/07/11 13:31:41;;;;;;;9.45;3.65;;;;;;;;;;5077009;28;20029;-73
2023/07/11 13:34:12;;;;;;;10.48;3.85;;;;;;;;;;5073884;28;20020;-74
2023/07/11 13:36:40;;;;;;;15.50;10.43;;;;;;;;;;5075053;28;20072;-74
2023/07/11 13:39:08;;;;;;;11.38;6.90;;;;;;;;;;5065987;28;20033;-74
2023/07/11 13:41:39;;;;;;;14.20;4.47;;;;;;;;;;5084572;28;20043;-75
2023/07/11 13:44:24;;;;;;;6.38;3.65;;;;;;;;;;5074602;28;20660;-72
2023/07/11 13:46:50;;;;;;;11.25;3.63;;;;;;;;;;5074340;28;20028;-74
2023/07/11 13:49:21;;;;;;;6.85;3.88;;;;;;;;;;5078846;28;20024;-74
2023/07/11 13:51:47;;;;;;;7.65;4.20;;;;;;;;;;5075892;28;20033;-73
2023/07/11 13:54:15;;;;;;;7.75;3.92;;;;;;;;;;5074890;28;20378;-73
2023/07/11 13:56:41;;;;;;;6.80;3.45;;;;;;;;;;5078080;28;20025;-73
2023/07/11 13:59:07;;;;;;;10.38;4.00;;;;;;;;;;5075402;28;20082;-75
2023/07/11 14:01:34;;;;;;;12.13;3.95;;;;;;;;;;5074735;28;20027;-75
2023/07/11 14:04:00;;;;;;;7.32;4.15;;;;;;;;;;5074776;28;20017;-73
2023/07/11 14:06:26;;;;;;;9.50;3.67;;;;;;;;;;5076205;28;20031;-74
2023/07/11 14:08:52;;;;;;;9.02;4.10;;;;;;;;;;5072271;28;20016;-75
2023/07/11 14:11:29;;;;;;;8.20;3.67;;;;;;;;;;5074700;28;20036;-75
2023/07/11 14:13:55;;;;;;;6.15;3.67;;;;;;;;;;5073993;28;20037;-74
2023/07/11 14:16:22;;;;;;;11.52;4.43;;;;;;;;;;5075394;28;20043;-74
2023/07/11 14:18:49;;;;;;;10.25;4.68;;;;;;;;;;5076249;28;20027;-74
2023/07/11 14:21:16;;;;;;;7.07;4.13;;;;;;;;;;5074797;28;20044;-74
2023/07/11 14:23:42;;;;;;;6.32;3.80;;;;;;;;;;5073969;28;20029;-74
2023/07/11 14:26:08;;;;;;;9.00;4.10;;;;;;;;;;5074555;28;20031;-74
2023/07/11 14:28:35;;;;;;;12.07;4.32;;;;;;;;;;5075117;28;20702;-74
2023/07/11 14:31:01;;;;;;;9.50;4.00;;;;;;;;;;5074195;28;20108;-75
2023/07/11 14:33:33;;;;;;;6.05;3.90;;;;;;;;;;5074098;28;20428;-74
2023/07/11 14:35:59;;;;;;;9.15;3.55;;;;;;;;;;5074104;28;20096;-74
2023/07/11 14:38:25;;;;;;;8.23;4.00;;;;;;;;;;5073877;28;20095;-74
2023/07/11 14:40:51;;;;;;;10.35;3.75;;;;;;;;;;5073120;28;20020;-74
2023/07/11 14:43:19;;;;;;;12.80;4.25;;;;;;;;;;5071929;28;20466;-74